createdAt,value
2022-09-16T00:03:59.597Z,13.90
2022-09-16T00:08:14.928Z,14.00
2022-09-16T00:12:28.912Z,14.10
2022-09-16T00:16:42.809Z,14.20
2022-09-16T00:20:56.525Z,14.30
2022-09-16T00:25:11.710Z,14.30
2022-09-16T00:29:25.523Z,14.20
2022-09-16T00:33:39.160Z,14.20
2022-09-16T00:37:52.806Z,14.20
2022-09-16T00:42:08.032Z,14.20
2022-09-16T00:46:27.684Z,14.20
2022-09-16T00:50:47.099Z,14.20
2022-09-16T00:55:04.998Z,14.30
2022-09-16T00:59:23.114Z,14.30
2022-09-16T01:03:43.199Z,14.20
2022-09-16T01:07:57.397Z,14.10
2022-09-16T01:12:11.104Z,14.00
2022-09-16T01:16:33.854Z,14.00
2022-09-16T01:21:20.324Z,13.90
2022-09-16T01:25:50.371Z,13.80
2022-09-16T01:30:22.505Z,13.80
2022-09-16T01:34:49.409Z,13.80
2022-09-16T01:39:14.274Z,13.80
2022-09-16T01:43:41.797Z,13.80
2022-09-16T01:48:02.405Z,13.70
2022-09-16T01:52:24.247Z,13.70
2022-09-16T01:56:43.306Z,13.60
2022-09-16T02:01:04.847Z,13.50
2022-09-16T02:05:23.958Z,13.40
2022-09-16T02:09:42.823Z,13.40
2022-09-16T02:14:00.620Z,13.20
2022-09-16T02:18:21.165Z,13.20
2022-09-16T02:22:38.911Z,13.10
2022-09-16T02:27:00.748Z,13.10
2022-09-16T02:31:16.821Z,13.00
2022-09-16T02:35:31.799Z,13.00
2022-09-16T02:39:49.548Z,13.00
2022-09-16T02:44:05.647Z,13.00
2022-09-16T02:48:27.474Z,13.00
2022-09-16T02:52:47.330Z,13.00
2022-09-16T02:57:01.204Z,13.00
2022-09-16T03:01:17.194Z,13.00
2022-09-16T03:05:31.247Z,13.00
2022-09-16T03:09:48.811Z,12.90
2022-09-16T03:14:20.812Z,12.90
2022-09-16T03:18:52.264Z,12.90
2022-09-16T03:23:14.874Z,12.80
2022-09-16T03:27:33.767Z,12.70
2022-09-16T03:31:56.289Z,12.70
2022-09-16T03:36:16.560Z,12.50
2022-09-16T03:40:32.277Z,12.40
2022-09-16T03:44:46.038Z,12.30
2022-09-16T03:49:00.072Z,12.20
2022-09-16T03:53:15.181Z,12.10
2022-09-16T03:57:30.384Z,12.00
2022-09-16T04:01:45.471Z,11.90
2022-09-16T04:05:59.634Z,11.90
2022-09-16T04:10:14.711Z,11.80
2022-09-16T04:14:28.429Z,11.80
2022-09-16T04:18:42.281Z,11.70
2022-09-16T04:22:56.012Z,11.60
2022-09-16T04:27:11.297Z,11.60
2022-09-16T04:31:24.940Z,11.50
2022-09-16T04:35:38.755Z,11.50
2022-09-16T04:39:53.372Z,11.50
2022-09-16T04:44:08.644Z,11.60
2022-09-16T04:48:22.210Z,11.50
2022-09-16T04:52:36.286Z,11.60
2022-09-16T04:56:49.962Z,11.60
2022-09-16T05:01:12.670Z,11.70
2022-09-16T05:05:26.400Z,11.70
2022-09-16T05:09:40.162Z,11.80
2022-09-16T05:13:54.135Z,11.90
2022-09-16T05:18:09.166Z,12.30
2022-09-16T05:22:22.851Z,12.70
2022-09-16T05:26:37.981Z,12.80
2022-09-16T05:30:51.674Z,13.00
2022-09-16T05:35:07.703Z,13.00
2022-09-16T05:39:24.029Z,12.90
2022-09-16T05:43:39.116Z,12.90
2022-09-16T05:47:52.788Z,13.40
2022-09-16T05:52:07.978Z,14.50
2022-09-16T05:56:25.571Z,15.80
2022-09-16T06:00:39.435Z,16.50
2022-09-16T06:04:53.265Z,16.50
2022-09-16T06:09:11.546Z,16.20
2022-09-16T06:13:25.299Z,16.00
2022-09-16T06:17:39.569Z,15.80
2022-09-16T06:21:53.225Z,15.80
2022-09-16T06:26:10.640Z,16.10
2022-09-16T06:30:26.078Z,16.10
2022-09-16T06:34:42.908Z,16.00
2022-09-16T06:38:56.877Z,15.90
2022-09-16T06:43:12.008Z,15.90
2022-09-16T06:47:25.870Z,16.60
2022-09-16T06:51:39.580Z,17.50
2022-09-16T06:55:53.391Z,18.30
2022-09-16T07:00:10.274Z,18.60
2022-09-16T07:04:23.992Z,18.70
2022-09-16T07:08:38.558Z,18.80
2022-09-16T07:12:55.042Z,18.60
2022-09-16T07:17:10.135Z,18.40
2022-09-16T07:21:28.660Z,18.20
2022-09-16T07:25:42.258Z,18.10
2022-09-16T07:29:59.578Z,17.90
2022-09-16T07:34:15.529Z,17.80
2022-09-16T07:38:30.433Z,17.80
2022-09-16T07:42:44.132Z,18.30
2022-09-16T07:46:57.736Z,19.40
2022-09-16T07:51:14.876Z,19.90
2022-09-16T07:55:28.521Z,19.90
2022-09-16T07:59:42.187Z,19.50
2022-09-16T08:03:57.307Z,19.10
2022-09-16T08:08:12.304Z,18.70
2022-09-16T08:12:26.076Z,18.40
2022-09-16T08:16:39.833Z,18.30
2022-09-16T08:20:53.545Z,18.20
2022-09-16T08:25:09.278Z,18.30
2022-09-16T08:29:25.106Z,18.40
2022-09-16T08:33:40.427Z,18.40
2022-09-16T08:37:54.927Z,18.20
2022-09-16T08:42:31.774Z,18.10
2022-09-16T08:46:53.540Z,18.50
2022-09-16T08:51:10.229Z,19.50
2022-09-16T08:55:31.754Z,20.80
2022-09-16T08:59:52.917Z,21.70
2022-09-16T09:04:07.131Z,21.70
2022-09-16T09:08:32.917Z,21.20
2022-09-16T09:12:54.456Z,20.90
2022-09-16T09:17:19.845Z,21.00
2022-09-16T09:21:42.531Z,21.00
2022-09-16T09:26:03.648Z,20.70
2022-09-16T09:30:21.992Z,20.30
2022-09-16T09:34:52.578Z,19.90
2022-09-16T09:39:25.008Z,19.40
2022-09-16T09:43:43.528Z,18.80
2022-09-16T09:48:02.268Z,18.20
2022-09-16T09:52:20.876Z,18.00
2022-09-16T09:56:37.628Z,18.60
2022-09-16T10:00:53.256Z,19.20
2022-09-16T10:05:07.805Z,19.70
2022-09-16T10:09:23.749Z,20.80
2022-09-16T10:13:48.297Z,22.30
2022-09-16T10:18:09.810Z,23.40
2022-09-16T10:22:27.555Z,23.10
2022-09-16T10:26:42.558Z,22.50
2022-09-16T10:30:59.333Z,22.20
2022-09-16T10:35:19.962Z,22.60
2022-09-16T10:39:34.255Z,22.80
2022-09-16T10:43:55.805Z,23.20
2022-09-16T10:48:15.934Z,24.30
2022-09-16T10:52:31.313Z,25.40
2022-09-16T10:56:50.195Z,26.00
2022-09-16T11:01:23.827Z,27.00
2022-09-16T11:05:47.349Z,27.60
2022-09-16T11:10:12.171Z,26.70
2022-09-16T11:14:40.783Z,25.50
2022-09-16T11:19:08.547Z,24.80
2022-09-16T11:23:35.213Z,25.10
2022-09-16T11:27:58.849Z,25.60
2022-09-16T11:32:23.378Z,25.30
2022-09-16T11:36:45.962Z,24.70
2022-09-16T11:41:04.837Z,24.10
2022-09-16T11:45:43.583Z,24.20
2022-09-16T11:50:09.885Z,24.40
2022-09-16T11:54:44.916Z,24.00
2022-09-16T11:59:03.529Z,23.00
2022-09-16T12:03:30.778Z,22.10
2022-09-16T12:07:49.889Z,21.70
2022-09-16T12:12:13.186Z,21.40
2022-09-16T12:16:37.218Z,21.10
2022-09-16T12:20:54.532Z,20.70
2022-09-16T12:25:12.428Z,20.40
2022-09-16T12:29:38.004Z,20.00
2022-09-16T12:33:55.974Z,19.60
2022-09-16T12:38:16.520Z,19.30
2022-09-16T12:43:01.438Z,19.30
2022-09-16T12:48:14.028Z,19.10
2022-09-16T12:52:42.835Z,18.90
2022-09-16T12:57:14.708Z,18.60
2022-09-16T13:01:33.772Z,18.40
2022-09-16T13:05:52.029Z,18.30
2022-09-16T13:10:08.974Z,18.20
2022-09-16T13:14:25.442Z,18.10
2022-09-16T13:18:45.029Z,18.00
2022-09-16T13:23:07.031Z,17.90
2022-09-16T13:27:34.482Z,17.90
2022-09-16T13:31:49.611Z,18.00
2022-09-16T13:36:16.707Z,18.00
2022-09-16T13:40:32.601Z,18.10
2022-09-16T13:44:46.335Z,18.20
2022-09-16T13:49:15.259Z,18.40
2022-09-16T13:53:31.902Z,18.50
2022-09-16T13:57:59.848Z,18.80
2022-09-16T14:02:19.791Z,19.10
2022-09-16T14:06:46.687Z,19.40
2022-09-16T14:11:07.478Z,19.60
2022-09-16T14:15:23.739Z,19.80
2022-09-16T14:19:39.928Z,19.80
2022-09-16T14:28:20.170Z,19.70
2022-09-16T14:32:37.775Z,19.50
2022-09-16T14:36:51.536Z,19.30
2022-09-16T14:41:07.860Z,19.10
2022-09-16T14:45:22.311Z,19.20
2022-09-16T14:49:39.214Z,19.10
2022-09-16T14:54:15.898Z,19.00
2022-09-16T14:58:32.308Z,19.00
2022-09-16T15:02:50.840Z,19.10
2022-09-16T15:07:12.634Z,19.00
2022-09-16T15:11:50.734Z,18.90
2022-09-16T15:16:10.791Z,18.60
2022-09-16T15:20:27.146Z,18.50
2022-09-16T15:24:43.096Z,18.30
2022-09-16T15:28:59.403Z,18.20
2022-09-16T15:33:29.709Z,18.10
2022-09-16T15:37:45.713Z,18.10
2022-09-16T15:42:12.889Z,17.90
2022-09-16T15:46:26.630Z,17.80
2022-09-16T15:50:45.226Z,17.70
2022-09-16T15:55:01.894Z,17.60
2022-09-16T15:59:28.047Z,17.50
2022-09-16T16:03:54.763Z,17.50
2022-09-16T16:08:10.090Z,17.40
2022-09-16T16:12:24.087Z,17.40
2022-09-16T16:17:01.481Z,17.30
2022-09-16T16:21:15.666Z,17.30
2022-09-16T16:25:29.968Z,17.20
2022-09-16T16:29:43.672Z,17.10
2022-09-16T16:33:58.876Z,17.10
2022-09-16T16:38:12.560Z,17.00
2022-09-16T16:42:28.651Z,16.90
2022-09-16T16:46:42.946Z,16.80
2022-09-16T16:51:00.714Z,16.70
2022-09-16T16:55:14.317Z,16.60
2022-09-16T16:59:28.815Z,16.50
2022-09-16T17:03:44.937Z,16.50
2022-09-16T17:07:59.975Z,16.40
2022-09-16T17:12:13.795Z,16.40
2022-09-16T17:16:28.658Z,16.30
2022-09-16T17:20:42.535Z,16.30
2022-09-16T17:24:57.797Z,16.30
2022-09-16T17:29:15.613Z,16.30
2022-09-16T17:33:31.013Z,16.40
2022-09-16T17:37:44.695Z,16.40
2022-09-16T17:42:00.175Z,16.40
2022-09-16T17:46:16.004Z,16.50
2022-09-16T17:50:29.817Z,16.50
2022-09-16T17:54:43.593Z,16.40
2022-09-16T17:58:58.630Z,16.30
2022-09-16T18:03:13.574Z,16.10
2022-09-16T18:07:27.402Z,15.90
2022-09-16T18:11:41.223Z,15.70
2022-09-16T18:15:56.420Z,15.50
2022-09-16T18:20:11.051Z,15.40
2022-09-16T18:24:24.657Z,15.30
2022-09-16T18:29:05.309Z,15.20
2022-09-16T18:33:14.337Z,15.10
2022-09-16T18:37:29.554Z,14.90
2022-09-16T18:41:45.429Z,14.80
2022-09-16T18:46:08.738Z,14.70
2022-09-16T18:50:31.517Z,14.60
2022-09-16T18:54:46.893Z,14.50
2022-09-16T18:59:21.581Z,14.50
2022-09-16T19:03:35.430Z,14.40
2022-09-16T19:07:50.441Z,14.30
2022-09-16T19:12:04.712Z,14.30
2022-09-16T19:16:18.919Z,14.20
2022-09-16T19:20:32.535Z,14.20
2022-09-16T19:24:49.110Z,14.20
2022-09-16T19:29:03.349Z,14.30
2022-09-16T19:33:17.319Z,14.40
2022-09-16T19:37:30.982Z,14.40
2022-09-16T19:41:46.003Z,14.50
2022-09-16T19:46:05.398Z,14.50
2022-09-16T19:50:19.312Z,14.60
2022-09-16T19:54:32.902Z,14.60
2022-09-16T19:58:48.039Z,14.70
2022-09-16T20:03:02.146Z,14.60
2022-09-16T20:07:17.345Z,14.60
2022-09-16T20:11:33.657Z,14.40
2022-09-16T20:15:48.657Z,14.30
2022-09-16T20:20:02.471Z,14.10
2022-09-16T20:24:18.422Z,14.00
2022-09-16T20:28:33.135Z,13.80
2022-09-16T20:32:48.177Z,13.60
2022-09-16T20:37:02.042Z,13.50
2022-09-16T20:41:18.437Z,13.50
2022-09-16T20:45:32.299Z,13.40
2022-09-16T20:49:47.319Z,13.40
2022-09-16T20:54:07.056Z,13.30
2022-09-16T20:58:21.588Z,13.20
2022-09-16T21:02:35.678Z,13.20
2022-09-16T21:06:50.812Z,13.10
2022-09-16T21:11:11.553Z,13.10
2022-09-16T21:15:25.223Z,13.10
2022-09-16T21:19:38.885Z,13.10
2022-09-16T21:23:55.676Z,13.20
2022-09-16T21:28:09.338Z,13.30
2022-09-16T21:32:22.969Z,13.30
2022-09-16T21:36:37.735Z,13.30
2022-09-16T21:41:00.257Z,13.40
2022-09-16T21:45:15.104Z,13.30
2022-09-16T21:49:30.456Z,13.30
2022-09-16T21:53:44.871Z,13.30
2022-09-16T21:57:59.887Z,13.30
2022-09-16T22:02:13.575Z,13.40
2022-09-16T22:06:27.893Z,13.50
2022-09-16T22:10:41.587Z,13.60
2022-09-16T22:14:56.680Z,13.70
2022-09-16T22:19:13.245Z,13.80
2022-09-16T22:23:26.926Z,13.90
2022-09-16T22:27:40.646Z,13.90
2022-09-16T22:31:55.929Z,13.90
2022-09-16T22:36:12.095Z,13.90
2022-09-16T22:40:25.855Z,14.00
2022-09-16T22:44:39.550Z,13.90
2022-09-16T22:48:56.730Z,13.90
2022-09-16T22:53:10.420Z,13.90
2022-09-16T22:57:24.253Z,13.80
2022-09-16T23:01:40.564Z,13.80
2022-09-16T23:06:04.253Z,13.70
2022-09-16T23:10:17.954Z,13.70
2022-09-16T23:14:32.179Z,13.70
2022-09-16T23:18:47.931Z,13.60
2022-09-16T23:23:03.230Z,13.50
2022-09-16T23:27:16.979Z,13.50
2022-09-16T23:31:32.473Z,13.40
2022-09-16T23:35:51.455Z,13.40
2022-09-16T23:40:07.734Z,13.30
2022-09-16T23:44:22.449Z,13.30
2022-09-16T23:48:36.255Z,13.30
2022-09-16T23:52:49.992Z,13.40
2022-09-16T23:57:05.356Z,13.30
